sensor_id;sensor_type;location;lat;lon;timestamp;P1;durP1;ratioP1;P2;durP2;ratioP2
43670;SDS011;29267;50.906;7.248;2022-09-27T00:02:20;2.58;;;1.98;;
43670;SDS011;29267;50.906;7.248;2022-09-27T00:04:46;3.92;;;1.83;;
43670;SDS011;29267;50.906;7.248;2022-09-27T00:07:11;5.75;;;2.60;;
43670;SDS011;29267;50.906;7.248;2022-09-27T00:09:37;5.68;;;2.38;;
43670;SDS011;29267;50.906;7.248;2022-09-27T00:12:03;5.68;;;2.55;;
43670;SDS011;29267;50.906;7.248;2022-09-27T00:14:29;6.35;;;1.95;;
43670;SDS011;29267;50.906;7.248;2022-09-27T00:16:55;3.85;;;2.70;;
43670;SDS011;29267;50.906;7.248;2022-09-27T00:19:22;4.07;;;2.42;;
43670;SDS011;29267;50.906;7.248;2022-09-27T00:21:49;4.28;;;2.10;;
43670;SDS011;29267;50.906;7.248;2022-09-27T00:24:16;3.78;;;1.98;;
43670;SDS011;29267;50.906;7.248;2022-09-27T00:26:44;4.13;;;1.73;;
43670;SDS011;29267;50.906;7.248;2022-09-27T00:29:11;2.55;;;1.92;;
43670;SDS011;29267;50.906;7.248;2022-09-27T00:31:37;3.63;;;2.45;;
43670;SDS011;29267;50.906;7.248;2022-09-27T00:34:04;2.85;;;1.90;;
43670;SDS011;29267;50.906;7.248;2022-09-27T00:36:31;3.42;;;2.13;;
43670;SDS011;29267;50.906;7.248;2022-09-27T00:38:58;3.30;;;2.17;;
43670;SDS011;29267;50.906;7.248;2022-09-27T00:41:29;3.40;;;2.20;;
43670;SDS011;29267;50.906;7.248;2022-09-27T00:44:04;4.15;;;1.70;;
43670;SDS011;29267;50.906;7.248;2022-09-27T00:46:50;4.65;;;2.85;;
43670;SDS011;29267;50.906;7.248;2022-09-27T00:49:34;3.50;;;2.22;;
43670;SDS011;29267;50.906;7.248;2022-09-27T00:52:09;3.75;;;2.28;;
43670;SDS011;29267;50.906;7.248;2022-09-27T00:54:40;4.43;;;2.30;;
43670;SDS011;29267;50.906;7.248;2022-09-27T00:57:11;2.38;;;1.80;;
43670;SDS011;29267;50.906;7.248;2022-09-27T01:02:14;2.50;;;2.20;;
43670;SDS011;29267;50.906;7.248;2022-09-27T01:04:40;4.90;;;2.38;;
43670;SDS011;29267;50.906;7.248;2022-09-27T01:07:07;3.70;;;2.35;;
43670;SDS011;29267;50.906;7.248;2022-09-27T01:09:33;4.22;;;1.90;;
43670;SDS011;29267;50.906;7.248;2022-09-27T01:14:47;2.95;;;2.65;;
43670;SDS011;29267;50.906;7.248;2022-09-27T01:17:37;4.55;;;2.67;;
43670;SDS011;29267;50.906;7.248;2022-09-27T01:31:39;5.82;;;2.08;;
43670;SDS011;29267;50.906;7.248;2022-09-27T01:34:34;3.20;;;2.10;;
43670;SDS011;29267;50.906;7.248;2022-09-27T01:39:54;5.97;;;2.47;;
43670;SDS011;29267;50.906;7.248;2022-09-27T01:48:11;3.70;;;2.28;;
43670;SDS011;29267;50.906;7.248;2022-09-27T01:50:25;3.40;;;1.90;;
43670;SDS011;29267;50.906;7.248;2022-09-27T01:53:11;4.60;;;1.90;;
43670;SDS011;29267;50.906;7.248;2022-09-27T01:55:42;4.32;;;2.08;;
43670;SDS011;29267;50.906;7.248;2022-09-27T01:58:15;7.25;;;2.30;;
43670;SDS011;29267;50.906;7.248;2022-09-27T02:00:42;2.80;;;1.90;;
43670;SDS011;29267;50.906;7.248;2022-09-27T02:03:12;3.80;;;2.00;;
43670;SDS011;29267;50.906;7.248;2022-09-27T02:05:44;2.50;;;2.17;;
43670;SDS011;29267;50.906;7.248;2022-09-27T02:08:27;3.40;;;2.25;;
43670;SDS011;29267;50.906;7.248;2022-09-27T02:11:01;3.85;;;1.98;;
43670;SDS011;29267;50.906;7.248;2022-09-27T02:24:41;4.78;;;2.17;;
43670;SDS011;29267;50.906;7.248;2022-09-27T02:27:16;5.88;;;2.72;;
43670;SDS011;29267;50.906;7.248;2022-09-27T02:30:01;4.18;;;1.90;;
43670;SDS011;29267;50.906;7.248;2022-09-27T02:32:37;3.28;;;2.15;;
43670;SDS011;29267;50.906;7.248;2022-09-27T02:35:24;4.05;;;2.20;;
43670;SDS011;29267;50.906;7.248;2022-09-27T02:37:56;3.90;;;2.00;;
43670;SDS011;29267;50.906;7.248;2022-09-27T02:40:22;3.22;;;2.30;;
43670;SDS011;29267;50.906;7.248;2022-09-27T02:42:50;2.95;;;1.95;;
43670;SDS011;29267;50.906;7.248;2022-09-27T02:45:17;4.07;;;2.03;;
43670;SDS011;29267;50.906;7.248;2022-09-27T02:56:24;4.40;;;2.22;;
43670;SDS011;29267;50.906;7.248;2022-09-27T03:07:01;2.42;;;1.83;;
43670;SDS011;29267;50.906;7.248;2022-09-27T03:09:28;5.25;;;1.90;;
43670;SDS011;29267;50.906;7.248;2022-09-27T03:12:04;3.17;;;2.10;;
43670;SDS011;29267;50.906;7.248;2022-09-27T03:14:29;4.43;;;2.25;;
43670;SDS011;29267;50.906;7.248;2022-09-27T03:16:55;2.47;;;2.10;;
43670;SDS011;29267;50.906;7.248;2022-09-27T03:19:22;3.42;;;2.38;;
43670;SDS011;29267;50.906;7.248;2022-09-27T03:21:48;4.20;;;1.83;;
43670;SDS011;29267;50.906;7.248;2022-09-27T03:24:14;3.97;;;1.85;;
43670;SDS011;29267;50.906;7.248;2022-09-27T03:26:39;2.97;;;1.80;;
43670;SDS011;29267;50.906;7.248;2022-09-27T03:29:05;3.20;;;1.83;;
43670;SDS011;29267;50.906;7.248;2022-09-27T03:31:31;3.53;;;2.33;;
43670;SDS011;29267;50.906;7.248;2022-09-27T03:33:56;2.35;;;1.60;;
43670;SDS011;29267;50.906;7.248;2022-09-27T03:36:22;2.40;;;1.88;;
43670;SDS011;29267;50.906;7.248;2022-09-27T03:38:48;3.58;;;1.90;;
43670;SDS011;29267;50.906;7.248;2022-09-27T03:41:13;2.85;;;2.20;;
43670;SDS011;29267;50.906;7.248;2022-09-27T03:43:39;2.85;;;1.85;;
43670;SDS011;29267;50.906;7.248;2022-09-27T03:46:07;4.82;;;2.40;;
43670;SDS011;29267;50.906;7.248;2022-09-27T03:48:33;3.03;;;2.13;;
43670;SDS011;29267;50.906;7.248;2022-09-27T03:50:59;3.55;;;2.53;;
43670;SDS011;29267;50.906;7.248;2022-09-27T03:53:24;4.18;;;1.88;;
43670;SDS011;29267;50.906;7.248;2022-09-27T03:55:50;5.00;;;2.08;;
43670;SDS011;29267;50.906;7.248;2022-09-27T03:58:16;3.45;;;2.35;;
43670;SDS011;29267;50.906;7.248;2022-09-27T04:00:41;2.65;;;2.08;;
43670;SDS011;29267;50.906;7.248;2022-09-27T04:03:09;3.15;;;2.10;;
43670;SDS011;29267;50.906;7.248;2022-09-27T04:05:36;3.25;;;1.77;;
43670;SDS011;29267;50.906;7.248;2022-09-27T04:08:01;2.53;;;1.90;;
43670;SDS011;29267;50.906;7.248;2022-09-27T04:10:29;3.70;;;1.60;;
43670;SDS011;29267;50.906;7.248;2022-09-27T04:12:55;2.83;;;2.05;;
43670;SDS011;29267;50.906;7.248;2022-09-27T04:15:20;3.38;;;2.20;;
43670;SDS011;29267;50.906;7.248;2022-09-27T04:17:46;2.25;;;1.83;;
43670;SDS011;29267;50.906;7.248;2022-09-27T04:20:12;2.65;;;2.03;;
43670;SDS011;29267;50.906;7.248;2022-09-27T04:22:38;3.13;;;2.03;;
43670;SDS011;29267;50.906;7.248;2022-09-27T04:25:06;3.30;;;2.15;;
43670;SDS011;29267;50.906;7.248;2022-09-27T04:27:33;4.25;;;2.17;;
43670;SDS011;29267;50.906;7.248;2022-09-27T04:29:59;3.58;;;2.28;;
43670;SDS011;29267;50.906;7.248;2022-09-27T04:32:24;4.25;;;1.95;;
43670;SDS011;29267;50.906;7.248;2022-09-27T04:34:50;2.45;;;1.75;;
43670;SDS011;29267;50.906;7.248;2022-09-27T04:40:01;3.33;;;2.10;;
43670;SDS011;29267;50.906;7.248;2022-09-27T04:42:27;3.05;;;2.05;;
43670;SDS011;29267;50.906;7.248;2022-09-27T04:44:53;4.15;;;1.65;;
43670;SDS011;29267;50.906;7.248;2022-09-27T04:47:18;2.55;;;1.83;;
43670;SDS011;29267;50.906;7.248;2022-09-27T04:49:45;3.78;;;2.03;;
43670;SDS011;29267;50.906;7.248;2022-09-27T04:52:11;2.03;;;1.70;;
43670;SDS011;29267;50.906;7.248;2022-09-27T04:54:39;1.85;;;1.63;;
43670;SDS011;29267;50.906;7.248;2022-09-27T04:57:05;3.53;;;1.90;;
43670;SDS011;29267;50.906;7.248;2022-09-27T04:59:31;4.70;;;1.83;;
43670;SDS011;29267;50.906;7.248;2022-09-27T05:01:56;3.03;;;1.50;;
43670;SDS011;29267;50.906;7.248;2022-09-27T05:04:24;2.80;;;1.60;;
43670;SDS011;29267;50.906;7.248;2022-09-27T05:06:50;4.30;;;1.88;;
43670;SDS011;29267;50.906;7.248;2022-09-27T05:09:16;1.60;;;1.50;;
43670;SDS011;29267;50.906;7.248;2022-09-27T05:11:42;4.00;;;2.10;;
43670;SDS011;29267;50.906;7.248;2022-09-27T05:14:10;2.72;;;1.70;;
43670;SDS011;29267;50.906;7.248;2022-09-27T05:16:38;3.22;;;1.67;;
43670;SDS011;29267;50.906;7.248;2022-09-27T05:19:03;1.70;;;1.58;;
43670;SDS011;29267;50.906;7.248;2022-09-27T05:21:29;1.73;;;1.58;;
43670;SDS011;29267;50.906;7.248;2022-09-27T05:23:56;2.78;;;1.42;;
43670;SDS011;29267;50.906;7.248;2022-09-27T05:26:22;3.53;;;1.90;;
43670;SDS011;29267;50.906;7.248;2022-09-27T05:28:47;2.78;;;2.33;;
43670;SDS011;29267;50.906;7.248;2022-09-27T05:31:13;2.10;;;1.60;;
43670;SDS011;29267;50.906;7.248;2022-09-27T05:33:40;6.22;;;2.40;;
43670;SDS011;29267;50.906;7.248;2022-09-27T05:36:05;3.03;;;1.70;;
43670;SDS011;29267;50.906;7.248;2022-09-27T05:38:32;3.58;;;2.28;;
43670;SDS011;29267;50.906;7.248;2022-09-27T05:40:59;3.33;;;1.60;;
43670;SDS011;29267;50.906;7.248;2022-09-27T05:43:25;3.45;;;2.00;;
43670;SDS011;29267;50.906;7.248;2022-09-27T05:45:51;4.30;;;2.20;;
43670;SDS011;29267;50.906;7.248;2022-09-27T05:48:17;3.75;;;1.95;;
43670;SDS011;29267;50.906;7.248;2022-09-27T05:50:43;2.97;;;1.90;;
43670;SDS011;29267;50.906;7.248;2022-09-27T05:53:10;3.15;;;2.08;;
43670;SDS011;29267;50.906;7.248;2022-09-27T05:55:37;2.58;;;2.13;;
43670;SDS011;29267;50.906;7.248;2022-09-27T05:58:03;3.53;;;1.90;;
43670;SDS011;29267;50.906;7.248;2022-09-27T06:00:30;3.40;;;1.80;;
43670;SDS011;29267;50.906;7.248;2022-09-27T06:02:57;2.97;;;1.67;;
43670;SDS011;29267;50.906;7.248;2022-09-27T06:05:25;2.38;;;1.98;;
43670;SDS011;29267;50.906;7.248;2022-09-27T06:07:56;3.03;;;2.10;;
43670;SDS011;29267;50.906;7.248;2022-09-27T06:10:24;3.45;;;2.33;;
43670;SDS011;29267;50.906;7.248;2022-09-27T06:12:50;2.28;;;1.52;;
43670;SDS011;29267;50.906;7.248;2022-09-27T06:15:16;2.30;;;1.75;;
43670;SDS011;29267;50.906;7.248;2022-09-27T06:17:42;3.95;;;1.40;;
43670;SDS011;29267;50.906;7.248;2022-09-27T06:20:08;1.98;;;1.63;;
43670;SDS011;29267;50.906;7.248;2022-09-27T06:22:34;3.17;;;2.10;;
43670;SDS011;29267;50.906;7.248;2022-09-27T06:25:01;2.70;;;1.52;;
43670;SDS011;29267;50.906;7.248;2022-09-27T06:27:28;3.63;;;1.80;;
43670;SDS011;29267;50.906;7.248;2022-09-27T06:29:56;2.67;;;1.83;;
43670;SDS011;29267;50.906;7.248;2022-09-27T06:32:22;2.33;;;1.35;;
43670;SDS011;29267;50.906;7.248;2022-09-27T06:34:48;3.58;;;1.70;;
43670;SDS011;29267;50.906;7.248;2022-09-27T06:37:14;2.15;;;1.58;;
43670;SDS011;29267;50.906;7.248;2022-09-27T06:39:40;3.58;;;1.48;;
43670;SDS011;29267;50.906;7.248;2022-09-27T06:42:06;4.97;;;1.85;;
43670;SDS011;29267;50.906;7.248;2022-09-27T06:44:32;2.40;;;1.48;;
43670;SDS011;29267;50.906;7.248;2022-09-27T06:46:58;3.90;;;2.00;;
43670;SDS011;29267;50.906;7.248;2022-09-27T06:49:24;2.67;;;1.50;;
43670;SDS011;29267;50.906;7.248;2022-09-27T06:51:50;2.85;;;1.67;;
43670;SDS011;29267;50.906;7.248;2022-09-27T06:54:16;4.03;;;1.73;;
43670;SDS011;29267;50.906;7.248;2022-09-27T06:56:42;3.38;;;1.50;;
43670;SDS011;29267;50.906;7.248;2022-09-27T06:59:11;5.82;;;2.33;;
43670;SDS011;29267;50.906;7.248;2022-09-27T07:01:55;3.95;;;2.10;;
43670;SDS011;29267;50.906;7.248;2022-09-27T07:04:20;2.35;;;2.03;;
43670;SDS011;29267;50.906;7.248;2022-09-27T07:06:46;2.70;;;1.80;;
43670;SDS011;29267;50.906;7.248;2022-09-27T07:09:12;4.15;;;1.70;;
43670;SDS011;29267;50.906;7.248;2022-09-27T07:11:38;3.03;;;1.40;;
43670;SDS011;29267;50.906;7.248;2022-09-27T07:14:04;2.28;;;1.50;;
43670;SDS011;29267;50.906;7.248;2022-09-27T07:16:30;3.88;;;1.75;;
43670;SDS011;29267;50.906;7.248;2022-09-27T07:19:00;3.35;;;1.92;;
43670;SDS011;29267;50.906;7.248;2022-09-27T07:21:25;3.83;;;1.38;;
43670;SDS011;29267;50.906;7.248;2022-09-27T07:23:51;3.05;;;1.30;;
43670;SDS011;29267;50.906;7.248;2022-09-27T07:26:18;4.93;;;1.50;;
43670;SDS011;29267;50.906;7.248;2022-09-27T07:28:43;2.50;;;1.67;;
43670;SDS011;29267;50.906;7.248;2022-09-27T07:31:10;3.80;;;1.42;;
43670;SDS011;29267;50.906;7.248;2022-09-27T07:33:36;2.65;;;1.48;;
43670;SDS011;29267;50.906;7.248;2022-09-27T07:36:07;4.55;;;1.58;;
43670;SDS011;29267;50.906;7.248;2022-09-27T07:38:34;4.50;;;1.50;;
43670;SDS011;29267;50.906;7.248;2022-09-27T07:41:33;1.75;;;1.30;;
43670;SDS011;29267;50.906;7.248;2022-09-27T07:43:52;2.35;;;1.40;;
43670;SDS011;29267;50.906;7.248;2022-09-27T07:46:18;1.75;;;1.30;;
43670;SDS011;29267;50.906;7.248;2022-09-27T07:48:44;2.28;;;1.38;;
43670;SDS011;29267;50.906;7.248;2022-09-27T07:51:10;3.97;;;1.70;;
43670;SDS011;29267;50.906;7.248;2022-09-27T07:53:36;4.95;;;1.92;;
43670;SDS011;29267;50.906;7.248;2022-09-27T07:56:01;1.85;;;1.23;;
43670;SDS011;29267;50.906;7.248;2022-09-27T07:58:27;1.73;;;0.90;;
43670;SDS011;29267;50.906;7.248;2022-09-27T08:00:54;2.42;;;1.48;;
43670;SDS011;29267;50.906;7.248;2022-09-27T08:03:20;4.22;;;1.85;;
43670;SDS011;29267;50.906;7.248;2022-09-27T08:05:46;2.78;;;1.30;;
43670;SDS011;29267;50.906;7.248;2022-09-27T08:08:12;3.67;;;1.60;;
43670;SDS011;29267;50.906;7.248;2022-09-27T08:10:39;1.65;;;1.02;;
43670;SDS011;29267;50.906;7.248;2022-09-27T08:13:10;3.95;;;1.92;;
43670;SDS011;29267;50.906;7.248;2022-09-27T08:15:37;3.55;;;1.52;;
43670;SDS011;29267;50.906;7.248;2022-09-27T08:18:05;2.00;;;1.38;;
43670;SDS011;29267;50.906;7.248;2022-09-27T08:20:33;4.03;;;1.80;;
43670;SDS011;29267;50.906;7.248;2022-09-27T08:22:59;3.42;;;1.17;;
43670;SDS011;29267;50.906;7.248;2022-09-27T08:25:27;2.35;;;1.58;;
43670;SDS011;29267;50.906;7.248;2022-09-27T08:27:58;4.47;;;1.20;;
43670;SDS011;29267;50.906;7.248;2022-09-27T08:30:26;2.38;;;1.33;;
43670;SDS011;29267;50.906;7.248;2022-09-27T08:32:56;4.38;;;1.75;;
43670;SDS011;29267;50.906;7.248;2022-09-27T08:35:23;3.67;;;1.25;;
43670;SDS011;29267;50.906;7.248;2022-09-27T08:37:55;1.90;;;1.00;;
43670;SDS011;29267;50.906;7.248;2022-09-27T08:40:24;2.00;;;1.35;;
43670;SDS011;29267;50.906;7.248;2022-09-27T08:43:18;2.63;;;1.10;;
43670;SDS011;29267;50.906;7.248;2022-09-27T08:45:53;7.90;;;1.30;;
43670;SDS011;29267;50.906;7.248;2022-09-27T08:48:27;2.45;;;1.73;;
43670;SDS011;29267;50.906;7.248;2022-09-27T08:50:53;2.88;;;1.33;;
43670;SDS011;29267;50.906;7.248;2022-09-27T08:53:27;2.80;;;1.27;;
43670;SDS011;29267;50.906;7.248;2022-09-27T08:55:58;1.20;;;0.70;;
43670;SDS011;29267;50.906;7.248;2022-09-27T08:58:34;2.00;;;1.23;;
43670;SDS011;29267;50.906;7.248;2022-09-27T09:01:11;2.85;;;1.40;;
43670;SDS011;29267;50.906;7.248;2022-09-27T09:03:43;2.63;;;1.00;;
43670;SDS011;29267;50.906;7.248;2022-09-27T09:11:38;2.10;;;1.42;;
43670;SDS011;29267;50.906;7.248;2022-09-27T09:17:26;1.67;;;1.13;;
43670;SDS011;29267;50.906;7.248;2022-09-27T09:20:32;2.03;;;1.17;;
43670;SDS011;29267;50.906;7.248;2022-09-27T09:23:30;1.33;;;0.80;;
43670;SDS011;29267;50.906;7.248;2022-09-27T09:35:06;2.63;;;1.20;;
43670;SDS011;29267;50.906;7.248;2022-09-27T09:37:48;1.92;;;1.25;;
43670;SDS011;29267;50.906;7.248;2022-09-27T09:40:21;1.95;;;1.25;;
43670;SDS011;29267;50.906;7.248;2022-09-27T09:42:58;4.90;;;1.52;;
43670;SDS011;29267;50.906;7.248;2022-09-27T09:45:46;2.10;;;1.33;;
43670;SDS011;29267;50.906;7.248;2022-09-27T09:51:06;1.55;;;1.02;;
43670;SDS011;29267;50.906;7.248;2022-09-27T10:04:03;4.05;;;1.70;;
43670;SDS011;29267;50.906;7.248;2022-09-27T10:06:29;1.83;;;0.90;;
43670;SDS011;29267;50.906;7.248;2022-09-27T10:08:56;5.57;;;1.48;;
43670;SDS011;29267;50.906;7.248;2022-09-27T10:13:47;3.00;;;1.48;;
43670;SDS011;29267;50.906;7.248;2022-09-27T10:16:15;1.80;;;1.05;;
43670;SDS011;29267;50.906;7.248;2022-09-27T10:18:44;1.48;;;1.17;;
43670;SDS011;29267;50.906;7.248;2022-09-27T10:21:13;1.83;;;1.40;;
43670;SDS011;29267;50.906;7.248;2022-09-27T10:24:02;2.60;;;1.40;;
43670;SDS011;29267;50.906;7.248;2022-09-27T10:26:34;3.65;;;1.30;;
43670;SDS011;29267;50.906;7.248;2022-09-27T10:31:41;1.92;;;1.45;;
43670;SDS011;29267;50.906;7.248;2022-09-27T10:37:28;2.37;;;1.70;;
43670;SDS011;29267;50.906;7.248;2022-09-27T10:39:48;3.50;;;1.95;;
43670;SDS011;29267;50.906;7.248;2022-09-27T10:44:56;3.25;;;2.53;;
43670;SDS011;29267;50.906;7.248;2022-09-27T10:47:22;4.40;;;2.50;;
43670;SDS011;29267;50.906;7.248;2022-09-27T10:49:50;8.77;;;2.47;;
43670;SDS011;29267;50.906;7.248;2022-09-27T10:52:21;4.03;;;2.28;;
43670;SDS011;29267;50.906;7.248;2022-09-27T10:57:48;10.13;;;2.22;;
43670;SDS011;29267;50.906;7.248;2022-09-27T11:00:23;5.78;;;2.78;;
43670;SDS011;29267;50.906;7.248;2022-09-27T11:02:55;4.82;;;2.33;;
43670;SDS011;29267;50.906;7.248;2022-09-27T11:07:56;4.15;;;2.47;;
43670;SDS011;29267;50.906;7.248;2022-09-27T11:10:27;3.97;;;2.00;;
43670;SDS011;29267;50.906;7.248;2022-09-27T11:13:04;4.13;;;2.10;;
43670;SDS011;29267;50.906;7.248;2022-09-27T11:16:02;5.93;;;2.25;;
43670;SDS011;29267;50.906;7.248;2022-09-27T11:18:35;3.63;;;2.10;;
43670;SDS011;29267;50.906;7.248;2022-09-27T11:29:39;3.45;;;2.33;;
43670;SDS011;29267;50.906;7.248;2022-09-27T11:37:52;6.90;;;3.17;;
43670;SDS011;29267;50.906;7.248;2022-09-27T11:40:24;5.72;;;2.78;;
43670;SDS011;29267;50.906;7.248;2022-09-27T11:45:54;4.63;;;2.20;;
43670;SDS011;29267;50.906;7.248;2022-09-27T11:48:46;3.15;;;2.25;;
43670;SDS011;29267;50.906;7.248;2022-09-27T12:01:53;5.40;;;2.03;;
43670;SDS011;29267;50.906;7.248;2022-09-27T12:04:33;2.95;;;2.25;;
43670;SDS011;29267;50.906;7.248;2022-09-27T12:10:00;4.78;;;2.40;;
43670;SDS011;29267;50.906;7.248;2022-09-27T12:12:33;10.32;;;2.45;;
43670;SDS011;29267;50.906;7.248;2022-09-27T12:15:02;4.03;;;2.50;;
43670;SDS011;29267;50.906;7.248;2022-09-27T12:17:35;4.13;;;2.05;;
43670;SDS011;29267;50.906;7.248;2022-09-27T12:20:21;5.50;;;2.40;;
43670;SDS011;29267;50.906;7.248;2022-09-27T12:25:57;3.70;;;2.67;;
43670;SDS011;29267;50.906;7.248;2022-09-27T12:28:37;2.90;;;2.20;;
43670;SDS011;29267;50.906;7.248;2022-09-27T12:31:14;4.82;;;2.58;;
43670;SDS011;29267;50.906;7.248;2022-09-27T12:37:03;2.42;;;1.95;;
43670;SDS011;29267;50.906;7.248;2022-09-27T12:42:24;5.43;;;2.83;;
43670;SDS011;29267;50.906;7.248;2022-09-27T12:44:55;3.50;;;2.88;;
43670;SDS011;29267;50.906;7.248;2022-09-27T12:53:05;4.47;;;2.85;;
43670;SDS011;29267;50.906;7.248;2022-09-27T12:58:47;5.38;;;2.97;;
43670;SDS011;29267;50.906;7.248;2022-09-27T13:12:46;6.22;;;3.40;;
43670;SDS011;29267;50.906;7.248;2022-09-27T13:15:15;7.30;;;3.97;;
43670;SDS011;29267;50.906;7.248;2022-09-27T13:17:50;4.20;;;3.10;;
43670;SDS011;29267;50.906;7.248;2022-09-27T13:23:00;5.20;;;3.20;;
43670;SDS011;29267;50.906;7.248;2022-09-27T13:25:55;4.03;;;2.67;;
43670;SDS011;29267;50.906;7.248;2022-09-27T13:30:53;4.63;;;3.03;;
43670;SDS011;29267;50.906;7.248;2022-09-27T13:44:14;4.20;;;2.85;;
43670;SDS011;29267;50.906;7.248;2022-09-27T13:46:59;4.88;;;3.05;;
43670;SDS011;29267;50.906;7.248;2022-09-27T13:55:01;7.55;;;2.47;;
43670;SDS011;29267;50.906;7.248;2022-09-27T13:57:54;6.28;;;2.58;;
43670;SDS011;29267;50.906;7.248;2022-09-27T14:00:29;5.13;;;2.50;;
43670;SDS011;29267;50.906;7.248;2022-09-27T14:03:06;4.57;;;2.45;;
43670;SDS011;29267;50.906;7.248;2022-09-27T14:06:16;3.72;;;2.08;;
43670;SDS011;29267;50.906;7.248;2022-09-27T14:08:50;3.75;;;2.13;;
43670;SDS011;29267;50.906;7.248;2022-09-27T14:11:23;2.70;;;1.90;;
43670;SDS011;29267;50.906;7.248;2022-09-27T14:13:50;3.40;;;2.33;;
43670;SDS011;29267;50.906;7.248;2022-09-27T14:16:17;5.13;;;2.25;;
43670;SDS011;29267;50.906;7.248;2022-09-27T14:18:45;4.15;;;2.65;;
43670;SDS011;29267;50.906;7.248;2022-09-27T14:23:40;4.72;;;2.75;;
43670;SDS011;29267;50.906;7.248;2022-09-27T14:26:17;3.15;;;2.25;;
43670;SDS011;29267;50.906;7.248;2022-09-27T14:28:47;10.30;;;2.80;;
43670;SDS011;29267;50.906;7.248;2022-09-27T14:31:13;6.35;;;2.78;;
43670;SDS011;29267;50.906;7.248;2022-09-27T14:33:41;4.80;;;2.65;;
43670;SDS011;29267;50.906;7.248;2022-09-27T14:36:25;3.30;;;2.25;;
43670;SDS011;29267;50.906;7.248;2022-09-27T14:39:32;4.93;;;2.70;;
43670;SDS011;29267;50.906;7.248;2022-09-27T14:42:02;3.70;;;2.65;;
43670;SDS011;29267;50.906;7.248;2022-09-27T14:44:42;4.72;;;2.60;;
43670;SDS011;29267;50.906;7.248;2022-09-27T14:47:14;3.28;;;2.10;;
43670;SDS011;29267;50.906;7.248;2022-09-27T14:49:55;4.88;;;2.20;;
43670;SDS011;29267;50.906;7.248;2022-09-27T14:52:27;4.30;;;2.50;;
43670;SDS011;29267;50.906;7.248;2022-09-27T14:55:09;6.65;;;2.25;;
43670;SDS011;29267;50.906;7.248;2022-09-27T14:57:44;4.72;;;2.10;;
43670;SDS011;29267;50.906;7.248;2022-09-27T15:02:51;2.53;;;1.90;;
43670;SDS011;29267;50.906;7.248;2022-09-27T15:05:23;3.80;;;2.38;;
43670;SDS011;29267;50.906;7.248;2022-09-27T15:07:50;3.90;;;1.90;;
43670;SDS011;29267;50.906;7.248;2022-09-27T15:10:21;3.22;;;2.08;;
43670;SDS011;29267;50.906;7.248;2022-09-27T15:15:22;4.15;;;1.83;;
43670;SDS011;29267;50.906;7.248;2022-09-27T15:17:50;3.50;;;1.80;;
43670;SDS011;29267;50.906;7.248;2022-09-27T15:20:27;4.05;;;2.40;;
43670;SDS011;29267;50.906;7.248;2022-09-27T15:22:58;5.95;;;2.45;;
43670;SDS011;29267;50.906;7.248;2022-09-27T15:25:30;3.55;;;2.83;;
43670;SDS011;29267;50.906;7.248;2022-09-27T15:28:03;8.02;;;3.05;;
43670;SDS011;29267;50.906;7.248;2022-09-27T15:30:34;8.95;;;4.32;;
43670;SDS011;29267;50.906;7.248;2022-09-27T15:32:59;6.95;;;4.53;;
43670;SDS011;29267;50.906;7.248;2022-09-27T15:35:27;8.70;;;5.10;;
43670;SDS011;29267;50.906;7.248;2022-09-27T15:40:57;12.95;;;6.18;;
43670;SDS011;29267;50.906;7.248;2022-09-27T15:46:00;21.43;;;9.37;;
43670;SDS011;29267;50.906;7.248;2022-09-27T15:48:31;20.45;;;7.15;;
43670;SDS011;29267;50.906;7.248;2022-09-27T15:50:59;18.48;;;8.38;;
43670;SDS011;29267;50.906;7.248;2022-09-27T15:55:58;23.95;;;9.05;;
43670;SDS011;29267;50.906;7.248;2022-09-27T15:58:28;16.88;;;7.15;;
43670;SDS011;29267;50.906;7.248;2022-09-27T16:00:59;24.10;;;8.80;;
43670;SDS011;29267;50.906;7.248;2022-09-27T16:03:27;19.05;;;8.65;;
43670;SDS011;29267;50.906;7.248;2022-09-27T16:05:56;18.63;;;8.45;;
43670;SDS011;29267;50.906;7.248;2022-09-27T16:08:23;22.27;;;8.98;;
43670;SDS011;29267;50.906;7.248;2022-09-27T16:10:51;22.30;;;8.43;;
43670;SDS011;29267;50.906;7.248;2022-09-27T16:13:22;21.45;;;8.57;;
43670;SDS011;29267;50.906;7.248;2022-09-27T16:15:49;15.20;;;6.68;;
43670;SDS011;29267;50.906;7.248;2022-09-27T16:18:15;16.08;;;6.93;;
43670;SDS011;29267;50.906;7.248;2022-09-27T16:20:41;15.15;;;7.38;;
43670;SDS011;29267;50.906;7.248;2022-09-27T16:23:07;16.35;;;6.70;;
43670;SDS011;29267;50.906;7.248;2022-09-27T16:25:33;16.90;;;6.28;;
43670;SDS011;29267;50.906;7.248;2022-09-27T16:27:59;14.68;;;6.13;;
43670;SDS011;29267;50.906;7.248;2022-09-27T16:30:26;12.98;;;6.28;;
43670;SDS011;29267;50.906;7.248;2022-09-27T16:32:53;12.32;;;6.18;;
43670;SDS011;29267;50.906;7.248;2022-09-27T16:35:20;18.23;;;6.68;;
43670;SDS011;29267;50.906;7.248;2022-09-27T16:37:46;15.45;;;5.43;;
43670;SDS011;29267;50.906;7.248;2022-09-27T16:40:12;11.95;;;4.80;;
43670;SDS011;29267;50.906;7.248;2022-09-27T16:42:41;11.23;;;4.35;;
43670;SDS011;29267;50.906;7.248;2022-09-27T16:45:08;12.65;;;5.13;;
43670;SDS011;29267;50.906;7.248;2022-09-27T16:47:42;9.90;;;4.97;;
43670;SDS011;29267;50.906;7.248;2022-09-27T16:50:08;11.95;;;5.63;;
43670;SDS011;29267;50.906;7.248;2022-09-27T16:52:54;11.60;;;5.80;;
43670;SDS011;29267;50.906;7.248;2022-09-27T16:55:20;12.85;;;6.22;;
43670;SDS011;29267;50.906;7.248;2022-09-27T16:57:49;19.52;;;6.30;;
43670;SDS011;29267;50.906;7.248;2022-09-27T17:00:15;13.60;;;6.30;;
43670;SDS011;29267;50.906;7.248;2022-09-27T17:02:42;13.60;;;6.13;;
43670;SDS011;29267;50.906;7.248;2022-09-27T17:05:11;12.15;;;5.57;;
43670;SDS011;29267;50.906;7.248;2022-09-27T17:07:37;11.40;;;5.90;;
43670;SDS011;29267;50.906;7.248;2022-09-27T17:10:03;12.43;;;6.05;;
43670;SDS011;29267;50.906;7.248;2022-09-27T17:12:30;9.52;;;5.00;;
43670;SDS011;29267;50.906;7.248;2022-09-27T17:14:56;11.00;;;5.18;;
43670;SDS011;29267;50.906;7.248;2022-09-27T17:17:22;10.88;;;5.85;;
43670;SDS011;29267;50.906;7.248;2022-09-27T17:19:49;13.50;;;5.97;;
43670;SDS011;29267;50.906;7.248;2022-09-27T17:22:15;12.52;;;6.10;;
43670;SDS011;29267;50.906;7.248;2022-09-27T17:24:41;11.68;;;4.72;;
43670;SDS011;29267;50.906;7.248;2022-09-27T17:27:07;12.38;;;5.82;;
43670;SDS011;29267;50.906;7.248;2022-09-27T17:29:32;14.80;;;4.90;;
43670;SDS011;29267;50.906;7.248;2022-09-27T17:31:58;16.88;;;6.53;;
43670;SDS011;29267;50.906;7.248;2022-09-27T17:34:24;12.00;;;5.35;;
43670;SDS011;29267;50.906;7.248;2022-09-27T17:36:51;11.02;;;5.70;;
43670;SDS011;29267;50.906;7.248;2022-09-27T17:39:19;10.07;;;4.57;;
43670;SDS011;29267;50.906;7.248;2022-09-27T17:41:49;11.73;;;5.22;;
43670;SDS011;29267;50.906;7.248;2022-09-27T17:44:16;13.43;;;6.03;;
43670;SDS011;29267;50.906;7.248;2022-09-27T17:46:42;9.32;;;5.25;;
43670;SDS011;29267;50.906;7.248;2022-09-27T17:49:10;8.43;;;4.80;;
43670;SDS011;29267;50.906;7.248;2022-09-27T17:51:55;10.52;;;4.57;;
43670;SDS011;29267;50.906;7.248;2022-09-27T17:54:21;8.70;;;4.32;;
43670;SDS011;29267;50.906;7.248;2022-09-27T17:56:51;9.35;;;4.45;;
43670;SDS011;29267;50.906;7.248;2022-09-27T17:59:17;10.90;;;4.53;;
43670;SDS011;29267;50.906;7.248;2022-09-27T18:01:44;6.63;;;3.33;;
43670;SDS011;29267;50.906;7.248;2022-09-27T18:04:14;3.22;;;2.08;;
43670;SDS011;29267;50.906;7.248;2022-09-27T18:06:41;3.60;;;2.38;;
43670;SDS011;29267;50.906;7.248;2022-09-27T18:09:20;4.38;;;2.50;;
43670;SDS011;29267;50.906;7.248;2022-09-27T18:11:46;5.43;;;2.38;;
43670;SDS011;29267;50.906;7.248;2022-09-27T18:14:15;5.63;;;2.50;;
43670;SDS011;29267;50.906;7.248;2022-09-27T18:16:40;3.58;;;2.15;;
43670;SDS011;29267;50.906;7.248;2022-09-27T18:19:09;7.95;;;2.53;;
43670;SDS011;29267;50.906;7.248;2022-09-27T18:21:36;4.38;;;2.40;;
43670;SDS011;29267;50.906;7.248;2022-09-27T18:24:03;4.65;;;2.17;;